Time;durP1;ratioP1;P1;durP2;ratioP2;P2;SDS_P1;SDS_P2;PMS_P1;PMS_P2;Temp;Humidity;BMP_temperature;BMP_pressure;BME280_temperature;BME280_humidity;BME280_pressure;Samples;Min_cycle;Max_cycle;Signal;HPM_P1;HPM_P2
2022/01/01 00:01:52;;;;;;;;;;;;;;;11.05;100.00;98213.50;1749133;81;24406;-91
2022/01/01 00:04:18;;;;;;;;;;;;;;;11.06;100.00;98216.96;1751203;81;20250;-91
2022/01/01 00:06:46;;;;;;;;;;;;;;;11.05;100.00;98227.91;1747590;81;24864;-91
2022/01/01 00:09:21;;;;;;;;;;;;;;;11.07;100.00;98240.89;1749900;81;22033;-90
2022/01/01 00:11:48;;;;;;;;;;;;;;;11.06;100.00;98240.06;1755242;81;25945;-91
2022/01/01 00:14:19;;;;;;;;;;;;;;;11.03;100.00;98246.81;1754352;81;24406;-91
2022/01/01 00:16:52;;;;;;;;;;;;;;;10.98;100.00;98246.32;1753251;81;20219;-92
2022/01/01 00:19:21;;;;;;;;;;;;;;;10.92;100.00;98241.54;1754382;81;24863;-91
2022/01/01 00:21:56;;;;;;;;;;;;;;;10.88;100.00;98238.33;1750629;81;22097;-91
2022/01/01 00:24:28;;;;;;;;;;;;;;;10.87;100.00;98235.34;1752225;81;26659;-92
2022/01/01 00:27:14;;;;;;;;;;;;;;;10.86;100.00;98240.68;1758827;80;24519;-92
2022/01/01 00:29:41;;;;;;;;;;;;;;;10.84;100.00;98238.20;1762621;81;20270;-92
2022/01/01 00:32:08;;;;;;;;;;;;;;;10.83;100.00;98243.06;1764727;81;25032;-92
2022/01/01 00:34:36;;;;;;;;;;;;;;;10.82;100.00;98244.48;1765572;81;21871;-93
2022/01/01 00:37:06;;;;;;;;;;;;;;;10.81;100.00;98242.80;1762341;81;26202;-92
2022/01/01 00:39:46;;;;;;;;;;;;;;;10.76;100.00;98247.08;1762815;81;24429;-91
2022/01/01 00:42:12;;;;;;;;;;;;;;;10.75;100.00;98248.48;1763063;81;20251;-90
2022/01/01 00:44:38;;;;;;;;;;;;;;;10.70;100.00;98253.23;1767017;81;24804;-90
2022/01/01 00:47:22;;;;;;;;;;;;;;;10.66;100.00;98255.72;1765424;80;22046;-91
2022/01/01 00:49:55;;;;;;;;;;;;;;;10.63;100.00;98256.80;1736927;81;26010;-92
2022/01/01 00:52:32;;;;;;;;;;;;;;;10.56;100.00;98256.86;1765951;81;24467;-91
2022/01/01 00:55:13;;;;;;;;;;;;;;;10.54;100.00;98272.30;1762364;81;20559;-91
2022/01/01 00:57:42;;;;;;;;;;;;;;;10.51;100.00;98281.22;1763823;81;24823;-93
2022/01/01 01:00:14;;;;;;;;;;;;;;;10.46;100.00;98274.18;1763490;80;21954;-92
2022/01/01 01:02:56;;;;;;;;;;;;;;;10.44;100.00;98280.82;1763059;80;26238;-92
2022/01/01 01:05:22;;;;;;;;;;;;;;;10.41;100.00;98271.90;1762706;80;25153;-93
2022/01/01 01:07:56;;;;;;;;;;;;;;;10.40;100.00;98281.99;1763444;81;20220;-92
2022/01/01 01:10:36;;;;;;;;;;;;;;;10.38;100.00;98277.80;1762311;81;24917;-93
2022/01/01 01:16:16;;;;;;;;;;;;;;;10.35;100.00;98290.64;1758371;81;26017;-92
2022/01/01 01:18:42;;;;;;;;;;;;;;;10.32;100.00;98284.30;1760561;80;24548;-91
2022/01/01 01:21:24;;;;;;;;;;;;;;;10.28;100.00;98282.02;1764247;81;20267;-91
2022/01/01 01:23:51;;;;;;;;;;;;;;;10.24;100.00;98286.64;1762247;80;24961;-91
2022/01/01 01:26:17;;;;;;;;;;;;;;;10.22;100.00;98288.98;1754508;80;22147;-92
2022/01/01 01:28:49;;;;;;;;;;;;;;;10.19;100.00;98293.98;1755379;80;26014;-91
2022/01/01 01:31:44;;;;;;;;;;;;;;;10.17;100.00;98303.70;1730816;82;20535;-93
2022/01/01 01:34:29;;;;;;;;;;;;;;;10.14;100.00;98316.98;1746996;81;20313;-93
2022/01/01 01:37:16;;;;;;;;;;;;;;;10.11;100.00;98314.56;1750783;81;24779;-93
2022/01/01 01:39:45;;;;;;;;;;;;;;;10.08;100.00;98331.78;1756990;81;22053;-93
2022/01/01 01:42:35;;;;;;;;;;;;;;;10.02;100.00;98326.97;1755569;81;26070;-93
2022/01/01 01:45:14;;;;;;;;;;;;;;;9.96;100.00;98327.39;1750642;81;25230;-92
2022/01/01 01:47:42;;;;;;;;;;;;;;;9.89;100.00;98324.36;1753989;81;20213;-91
2022/01/01 01:50:09;;;;;;;;;;;;;;;9.85;100.00;98329.44;1757258;81;24796;-92
2022/01/01 01:52:37;;;;;;;;;;;;;;;9.82;100.00;98330.94;1755496;81;21951;-91
2022/01/01 01:55:06;;;;;;;;;;;;;;;9.80;100.00;98338.06;1729703;82;26385;-92
2022/01/01 01:57:39;;;;;;;;;;;;;;;9.78;100.00;98336.02;1751513;81;25123;-91
2022/01/01 02:02:57;;;;;;;;;;;;;;;9.74;100.00;98349.40;1725600;81;25372;-90
2022/01/01 02:05:33;;;;;;;;;;;;;;;9.73;100.00;98351.64;1755368;81;22062;-91
2022/01/01 02:08:12;;;;;;;;;;;;;;;9.71;100.00;98346.51;1746764;81;25980;-91
2022/01/01 02:10:52;;;;;;;;;;;;;;;9.71;100.00;98354.34;1749539;81;25144;-90
2022/01/01 02:13:38;;;;;;;;;;;;;;;9.71;100.00;98353.05;1756994;81;20293;-91
2022/01/01 02:18:30;;;;;;;;;;;;;;;9.73;100.00;98363.40;1755920;81;21965;-92
2022/01/01 02:20:56;;;;;;;;;;;;;;;9.74;100.00;98359.85;1761628;81;25946;-91
2022/01/01 02:23:44;;;;;;;;;;;;;;;9.73;100.00;98362.09;1751874;81;20867;-91
2022/01/01 02:26:15;;;;;;;;;;;;;;;9.73;100.00;98366.85;1756179;79;20228;-91
2022/01/01 02:28:53;;;;;;;;;;;;;;;9.75;100.00;98365.45;1760109;81;24847;-90
2022/01/01 02:31:22;;;;;;;;;;;;;;;9.78;100.00;98365.23;1754729;81;22041;-91
2022/01/01 02:33:51;;;;;;;;;;;;;;;9.80;100.00;98375.13;1757430;80;25945;-91
2022/01/01 02:36:21;;;;;;;;;;;;;;;9.80;100.00;98375.13;1753318;81;24532;-90
2022/01/01 02:38:47;;;;;;;;;;;;;;;9.80;100.00;98377.73;1749127;80;20256;-91
2022/01/01 02:41:26;;;;;;;;;;;;;;;9.79;100.00;98377.36;1754309;81;24835;-91
2022/01/01 02:44:10;;;;;;;;;;;;;;;9.78;100.00;98378.30;1756917;81;22020;-91
2022/01/01 02:46:37;;;;;;;;;;;;;;;9.78;100.00;98384.83;1752589;81;26229;-91
2022/01/01 02:49:04;;;;;;;;;;;;;;;9.79;100.00;98393.88;1755258;81;24428;-91
2022/01/01 02:51:30;;;;;;;;;;;;;;;9.79;100.00;98405.64;1754062;81;20300;-91
2022/01/01 02:54:01;;;;;;;;;;;;;;;9.81;100.00;98405.55;1755503;81;24775;-91
2022/01/01 02:56:29;;;;;;;;;;;;;;;9.80;100.00;98405.17;1758968;81;22077;-90
2022/01/01 02:58:56;;;;;;;;;;;;;;;9.81;100.00;98411.62;1755422;81;26006;-90
2022/01/01 03:01:22;;;;;;;;;;;;;;;9.82;100.00;98416.37;1755850;81;24699;-90
2022/01/01 03:03:48;;;;;;;;;;;;;;;9.83;100.00;98403.66;1756720;81;20279;-90
2022/01/01 03:06:20;;;;;;;;;;;;;;;9.83;100.00;98412.80;1758605;81;24823;-90
2022/01/01 03:08:42;;;;;;;;;;;;;;;9.85;100.00;98418.30;1756354;81;22663;-91
2022/01/01 03:11:29;;;;;;;;;;;;;;;9.84;100.00;98415.32;1759215;81;26639;-91
2022/01/01 03:14:04;;;;;;;;;;;;;;;9.84;100.00;98414.02;1753465;81;24812;-91
2022/01/01 03:16:45;;;;;;;;;;;;;;;9.83;100.00;98422.78;1756738;81;20437;-90
2022/01/01 03:19:11;;;;;;;;;;;;;;;9.83;100.00;98431.09;1753801;81;25433;-92
2022/01/01 03:21:46;;;;;;;;;;;;;;;9.81;100.00;98431.69;1755743;81;22023;-92
2022/01/01 03:24:27;;;;;;;;;;;;;;;9.82;100.00;98434.67;1757422;81;26345;-93
2022/01/01 03:27:03;;;;;;;;;;;;;;;9.81;100.00;98434.30;1757210;81;24416;-92
2022/01/01 03:29:32;;;;;;;;;;;;;;;9.80;100.00;98441.30;1755115;81;20213;-93
2022/01/01 03:32:05;;;;;;;;;;;;;;;9.80;100.00;98448.30;1754461;81;24819;-93
2022/01/01 03:34:52;;;;;;;;;;;;;;;9.78;100.00;98452.31;1758044;81;21989;-93
2022/01/01 03:37:23;;;;;;;;;;;;;;;9.78;100.00;98447.09;1735521;81;26057;-92
2022/01/01 03:40:02;;;;;;;;;;;;;;;9.78;100.00;98448.86;1757826;81;24497;-92
2022/01/01 03:42:37;;;;;;;;;;;;;;;9.78;100.00;98451.47;1737756;81;20232;-93
2022/01/01 03:48:11;;;;;;;;;;;;;;;9.77;100.00;98458.94;1757208;81;21924;-93
2022/01/01 03:53:41;;;;;;;;;;;;;;;9.77;100.00;98461.55;1755296;81;24439;-92
2022/01/01 03:56:28;;;;;;;;;;;;;;;9.77;100.00;98470.70;1755486;81;20169;-93
2022/01/01 03:59:07;;;;;;;;;;;;;;;9.76;100.00;98463.83;1755393;81;24810;-92
2022/01/01 04:01:41;;;;;;;;;;;;;;;9.76;100.00;98466.44;1756204;81;22079;-92
2022/01/01 04:04:10;;;;;;;;;;;;;;;9.75;100.00;98464.76;1760173;81;26050;-92
2022/01/01 04:06:49;;;;;;;;;;;;;;;9.72;100.00;98472.31;1756033;81;24428;-92
2022/01/01 04:09:21;;;;;;;;;;;;;;;9.70;100.00;98474.21;1755714;81;20185;-93
2022/01/01 04:12:00;;;;;;;;;;;;;;;9.70;100.00;98470.76;1757589;81;24837;-92
2022/01/01 04:17:21;;;;;;;;;;;;;;;9.70;100.00;98479.91;1754107;81;26078;-92
2022/01/01 04:19:47;;;;;;;;;;;;;;;9.69;100.00;98473.00;1756238;81;25457;-92
2022/01/01 04:22:16;;;;;;;;;;;;;;;9.69;100.00;98482.98;1757400;81;20433;-91
2022/01/01 04:24:42;;;;;;;;;;;;;;;9.68;100.00;98485.22;1755521;81;24973;-90
2022/01/01 04:27:08;;;;;;;;;;;;;;;9.68;100.00;98486.53;1753327;81;21952;-91
2022/01/01 04:29:41;;;;;;;;;;;;;;;9.68;100.00;98483.08;1751185;81;26070;-92
2022/01/01 04:32:14;;;;;;;;;;;;;;;9.68;100.00;98479.16;1747362;81;24490;-92
2022/01/01 04:34:55;;;;;;;;;;;;;;;9.67;100.00;98482.23;1756339;81;20238;-92
2022/01/01 04:37:21;;;;;;;;;;;;;;;9.67;100.00;98480.92;1753877;81;24838;-92
2022/01/01 04:39:50;;;;;;;;;;;;;;;9.67;100.00;98474.39;1751666;81;21898;-91
2022/01/01 04:42:21;;;;;;;;;;;;;;;9.66;100.00;98477.94;1754765;81;26821;-92
2022/01/01 04:45:06;;;;;;;;;;;;;;;9.67;100.00;98475.70;1749199;81;24461;-91
2022/01/01 04:47:33;;;;;;;;;;;;;;;9.66;100.00;98468.33;1751651;81;20154;-92
2022/01/01 04:50:03;;;;;;;;;;;;;;;9.66;100.00;98473.55;1753282;81;24733;-91
2022/01/01 04:52:31;;;;;;;;;;;;;;;9.66;100.00;98473.55;1753985;81;23034;-92
2022/01/01 04:55:00;;;;;;;;;;;;;;;9.65;100.00;98476.29;1749118;81;25979;-90
2022/01/01 04:57:42;;;;;;;;;;;;;;;9.66;100.00;98492.31;1749041;81;24421;-92
2022/01/01 05:03:09;;;;;;;;;;;;;;;9.66;100.00;98491.00;1752482;81;24723;-93
2022/01/01 05:05:36;;;;;;;;;;;;;;;9.65;100.00;98490.66;1753941;81;21992;-92
2022/01/01 05:08:18;;;;;;;;;;;;;;;9.63;100.00;98492.06;1751503;81;26006;-93
2022/01/01 05:13:38;;;;;;;;;;;;;;;9.62;100.00;98494.30;1744618;81;20269;-92
2022/01/01 05:16:15;;;;;;;;;;;;;;;9.62;100.00;98494.77;1751990;81;24704;-92
2022/01/01 05:21:32;;;;;;;;;;;;;;;9.61;100.00;98503.06;1735739;81;28023;-91
2022/01/01 05:24:04;;;;;;;;;;;;;;;9.63;100.00;98498.59;1751664;81;24474;-93
2022/01/01 05:26:40;;;;;;;;;;;;;;;9.64;100.00;98495.52;1749624;81;20138;-92
2022/01/01 05:29:10;;;;;;;;;;;;;;;9.65;100.00;98503.73;1755092;81;25470;-92
2022/01/01 05:31:43;;;;;;;;;;;;;;;9.65;100.00;98495.89;1756781;81;21974;-93
2022/01/01 05:34:13;;;;;;;;;;;;;;;9.66;100.00;98504.07;1752467;81;27752;-93
2022/01/01 05:36:52;;;;;;;;;;;;;;;9.68;100.00;98510.52;1753445;81;24425;-93
2022/01/01 05:39:24;;;;;;;;;;;;;;;9.66;100.00;98514.06;1757983;81;20150;-93
2022/01/01 05:41:54;;;;;;;;;;;;;;;9.68;100.00;98515.73;1747697;81;24895;-92
2022/01/01 05:44:21;;;;;;;;;;;;;;;9.68;100.00;98517.05;1746836;81;22201;-93
2022/01/01 05:46:59;;;;;;;;;;;;;;;9.70;100.00;98528.25;1759421;81;26057;-92
2022/01/01 05:49:34;;;;;;;;;;;;;;;9.70;100.00;98525.63;1760248;81;24404;-93
2022/01/01 05:52:01;;;;;;;;;;;;;;;9.70;100.00;98523.86;1745102;81;20166;-93
2022/01/01 05:54:29;;;;;;;;;;;;;;;9.71;100.00;98527.31;1753965;81;24969;-92
2022/01/01 05:57:03;;;;;;;;;;;;;;;9.71;100.00;98524.20;1744479;81;21960;-93
2022/01/01 05:59:46;;;;;;;;;;;;;;;9.73;100.00;98539.80;1756403;81;25533;-92
2022/01/01 06:02:12;;;;;;;;;;;;;;;9.74;100.00;98548.84;1753972;81;24495;-93
2022/01/01 06:04:47;;;;;;;;;;;;;;;9.75;100.00;98548.39;1757634;81;20512;-93
2022/01/01 06:07:27;;;;;;;;;;;;;;;9.77;100.00;98547.33;1734914;81;24320;-93
2022/01/01 06:10:08;;;;;;;;;;;;;;;9.81;100.00;98561.90;1747468;81;22181;-92
2022/01/01 06:15:22;;;;;;;;;;;;;;;9.83;100.00;98567.01;1755165;81;24430;-92
2022/01/01 06:17:52;;;;;;;;;;;;;;;9.83;100.00;98570.46;1757751;81;20173;-92
2022/01/01 06:20:24;;;;;;;;;;;;;;;9.83;100.00;98574.84;1755076;81;24817;-92
2022/01/01 06:22:54;;;;;;;;;;;;;;;9.83;100.00;98582.22;1752542;81;21956;-92
2022/01/01 06:25:26;;;;;;;;;;;;;;;9.86;100.00;98576.81;1760412;81;26032;-92
2022/01/01 06:27:56;;;;;;;;;;;;;;;9.86;100.00;98587.73;1763498;81;24514;-92
2022/01/01 06:30:33;;;;;;;;;;;;;;;9.87;100.00;98582.39;1753340;81;20230;-94
2022/01/01 06:33:11;;;;;;;;;;;;;;;9.86;100.00;98585.13;1754315;81;24919;-94
2022/01/01 06:35:49;;;;;;;;;;;;;;;9.88;100.00;98587.15;1748771;81;22219;-93
2022/01/01 06:38:27;;;;;;;;;;;;;;;9.88;100.00;98587.15;1750427;81;26154;-93
2022/01/01 06:40:59;;;;;;;;;;;;;;;9.88;100.00;98593.22;1754135;81;24500;-92
2022/01/01 06:43:28;;;;;;;;;;;;;;;9.87;100.00;98586.31;1751953;81;20251;-93
2022/01/01 06:45:56;;;;;;;;;;;;;;;9.88;100.00;98590.61;1753562;81;24844;-92
2022/01/01 06:48:26;;;;;;;;;;;;;;;9.87;100.00;98597.27;1754877;81;22043;-92
2022/01/01 06:51:15;;;;;;;;;;;;;;;9.89;100.00;98601.91;1756513;81;26039;-93
2022/01/01 06:53:50;;;;;;;;;;;;;;;9.88;100.00;98600.22;1752732;81;24491;-92
2022/01/01 06:59:42;;;;;;;;;;;;;;;9.91;100.00;98601.34;1753029;81;20895;-92
2022/01/01 07:05:36;;;;;;;;;;;;;;;9.91;100.00;98603.96;1753347;81;22111;-93
2022/01/01 07:08:32;;;;;;;;;;;;;;;9.92;100.00;98614.33;1754928;81;24396;-94
2022/01/01 07:11:17;;;;;;;;;;;;;;;9.94;100.00;98618.12;1753200;81;20214;-93
2022/01/01 07:13:43;;;;;;;;;;;;;;;9.93;100.00;98618.59;1754553;81;24741;-93
2022/01/01 07:16:17;;;;;;;;;;;;;;;9.96;100.00;98621.50;1760065;81;23002;-93
2022/01/01 07:18:49;;;;;;;;;;;;;;;9.97;100.00;98624.48;1760878;81;26050;-93
2022/01/01 07:21:17;;;;;;;;;;;;;;;9.96;100.00;98626.72;1756450;81;24390;-93
2022/01/01 07:23:56;;;;;;;;;;;;;;;9.95;100.00;98624.58;1752609;81;20241;-93
2022/01/01 07:26:35;;;;;;;;;;;;;;;9.94;100.00;98624.20;1753350;81;24868;-93
2022/01/01 07:29:07;;;;;;;;;;;;;;;9.94;100.00;98622.89;1752872;81;21964;-93
2022/01/01 07:31:40;;;;;;;;;;;;;;;9.96;100.00;98619.72;1749307;82;26015;-93
2022/01/01 07:34:09;;;;;;;;;;;;;;;9.97;100.00;98628.41;1752735;81;24398;-92
2022/01/01 07:36:45;;;;;;;;;;;;;;;9.97;100.00;98627.09;1753265;82;20256;-93
2022/01/01 07:39:14;;;;;;;;;;;;;;;9.97;100.00;98633.17;1752363;82;24807;-93
2022/01/01 07:41:44;;;;;;;;;;;;;;;9.98;100.00;98635.32;1750060;81;22147;-93
2022/01/01 07:44:16;;;;;;;;;;;;;;;9.96;100.00;98630.64;1752683;82;26051;-93
2022/01/01 07:46:42;;;;;;;;;;;;;;;9.95;100.00;98629.80;1753108;82;24656;-93
2022/01/01 07:49:19;;;;;;;;;;;;;;;9.96;100.00;98630.64;1752808;81;20173;-93
2022/01/01 07:51:51;;;;;;;;;;;;;;;9.95;100.00;98632.88;1751148;82;24771;-93
2022/01/01 07:54:23;;;;;;;;;;;;;;;9.93;100.00;98637.36;1751413;81;22059;-92
2022/01/01 07:57:07;;;;;;;;;;;;;;;9.93;100.00;98636.05;1752585;82;25968;-93
2022/01/01 07:59:35;;;;;;;;;;;;;;;9.91;100.00;98639.25;1752394;81;24455;-92
2022/01/01 08:02:08;;;;;;;;;;;;;;;9.91;100.00;98645.78;1749767;81;20205;-93
2022/01/01 08:04:53;;;;;;;;;;;;;;;9.91;100.00;98649.70;1752755;82;24815;-93
2022/01/01 08:07:20;;;;;;;;;;;;;;;9.90;100.00;98651.48;1747190;82;22179;-93
2022/01/01 08:09:47;;;;;;;;;;;;;;;9.90;100.00;98658.02;1753301;81;26023;-92
2022/01/01 08:21:15;;;;;;;;;;;;;;;9.93;100.00;98672.66;1752781;82;20141;-94
2022/01/01 08:23:47;;;;;;;;;;;;;;;9.93;100.00;98663.50;1753431;81;26049;-95
2022/01/01 08:26:13;;;;;;;;;;;;;;;9.95;100.00;98667.71;1753840;82;24117;-94
2022/01/01 08:28:56;;;;;;;;;;;;;;;9.96;100.00;98656.33;1752937;81;20329;-93
2022/01/01 08:31:34;;;;;;;;;;;;;;;9.97;100.00;98659.31;1716495;82;24756;-94
2022/01/01 08:39:51;;;;;;;;;;;;;;;10.02;100.00;98686.00;1754183;81;20559;-92
2022/01/01 08:48:42;;;;;;;;;;;;;;;10.07;100.00;98684.39;1753294;81;20504;-93
2022/01/01 08:51:18;;;;;;;;;;;;;;;10.08;100.00;98701.30;1751594;81;26024;-93
2022/01/01 08:53:58;;;;;;;;;;;;;;;10.09;100.00;98706.07;1750059;81;25751;-93
2022/01/01 08:56:59;;;;;;;;;;;;;;;10.11;100.00;98704.17;1728432;82;20246;-92
2022/01/01 08:59:44;;;;;;;;;;;;;;;10.12;100.00;98703.71;1741435;81;24986;-94
2022/01/01 09:02:16;;;;;;;;;;;;;;;10.14;100.00;98713.62;1745728;81;22061;-91
2022/01/01 09:04:48;;;;;;;;;;;;;;;10.16;100.00;98709.98;1748776;81;25988;-91
2022/01/01 09:07:14;;;;;;;;;;;;;;;10.17;100.00;98712.98;1748746;81;24504;-91
2022/01/01 09:09:40;;;;;;;;;;;;;;;10.20;100.00;98717.19;1748344;81;20234;-91
2022/01/01 09:12:16;;;;;;;;;;;;;;;10.22;100.00;98713.98;1748701;81;24735;-91
2022/01/01 09:14:51;;;;;;;;;;;;;;;10.25;100.00;98714.65;1747300;81;22052;-91
2022/01/01 09:17:20;;;;;;;;;;;;;;;10.29;100.00;98712.20;1750714;81;25643;-91
2022/01/01 09:19:47;;;;;;;;;;;;;;;10.32;100.00;98717.22;1728092;81;24041;-90
2022/01/01 09:22:13;;;;;;;;;;;;;;;10.34;100.00;98712.73;1749406;81;20206;-90
2022/01/01 09:24:39;;;;;;;;;;;;;;;10.35;100.00;98713.12;1748887;81;20767;-89
2022/01/01 09:27:17;;;;;;;;;;;;;;;10.36;100.00;98714.80;1748858;81;22505;-90
2022/01/01 09:29:43;;;;;;;;;;;;;;;10.37;100.00;98715.61;1745504;81;25960;-89
2022/01/01 09:32:10;;;;;;;;;;;;;;;10.38;100.00;98722.06;1746292;81;24579;-91
2022/01/01 09:34:37;;;;;;;;;;;;;;;10.43;100.00;98721.76;1745431;81;20257;-91
2022/01/01 09:37:12;;;;;;;;;;;;;;;10.45;100.00;98727.74;1746155;81;24786;-91
2022/01/01 09:39:50;;;;;;;;;;;;;;;10.46;100.00;98725.50;1751328;81;22072;-91
2022/01/01 09:42:23;;;;;;;;;;;;;;;10.51;100.00;98726.05;1752569;81;26138;-90
2022/01/01 09:44:54;;;;;;;;;;;;;;;10.54;100.00;98722.38;1757484;81;24486;-90
2022/01/01 09:47:26;;;;;;;;;;;;;;;10.56;100.00;98719.20;1755349;81;20258;-92
2022/01/01 09:49:54;;;;;;;;;;;;;;;10.58;100.00;98712.09;1755175;80;24767;-91
2022/01/01 09:52:29;;;;;;;;;;;;;;;10.59;100.00;98709.83;1754640;81;22171;-90
2022/01/01 09:54:56;;;;;;;;;;;;;;;10.60;100.00;98720.66;1751457;81;26958;-92
2022/01/01 09:57:36;;;;;;;;;;;;;;;10.60;100.00;98722.81;1757494;81;25276;-90
2022/01/01 10:00:07;;;;;;;;;;;;;;;10.58;100.00;98714.72;1754625;81;20481;-93
2022/01/01 10:02:45;;;;;;;;;;;;;;;10.57;100.00;98710.41;1752010;81;25425;-91
2022/01/01 10:05:23;;;;;;;;;;;;;;;10.57;100.00;98715.64;1753854;81;22044;-91
2022/01/01 10:08:01;;;;;;;;;;;;;;;10.58;100.00;98719.95;1748102;81;25644;-91
2022/01/01 10:10:28;;;;;;;;;;;;;;;10.55;100.00;98716.20;1751001;81;24592;-92
2022/01/01 10:12:57;;;;;;;;;;;;;;;10.53;100.00;98723.34;1750414;81;20326;-91
2022/01/01 10:15:23;;;;;;;;;;;;;;;10.52;100.00;98721.66;1749027;80;24856;-91
2022/01/01 10:17:49;;;;;;;;;;;;;;;10.52;100.00;98728.19;1759415;81;21926;-91
2022/01/01 10:20:16;;;;;;;;;;;;;;;10.48;100.00;98727.06;1750880;81;26995;-91
2022/01/01 10:22:42;;;;;;;;;;;;;;;10.51;100.00;98725.20;1752643;81;24474;-90
2022/01/01 10:28:11;;;;;;;;;;;;;;;10.49;100.00;98722.20;1751098;81;24827;-92
2022/01/01 10:30:43;;;;;;;;;;;;;;;10.50;100.00;98723.05;1748173;80;22060;-90
2022/01/01 10:33:12;;;;;;;;;;;;;;;10.52;100.00;98725.58;1751114;81;26823;-91
2022/01/01 10:35:48;;;;;;;;;;;;;;;10.55;100.00;98724.90;1731571;81;24428;-91
2022/01/01 10:38:17;;;;;;;;;;;;;;;10.59;100.00;98726.83;1756424;81;20539;-91
2022/01/01 10:40:43;;;;;;;;;;;;;;;10.60;100.00;98729.83;1757323;81;24874;-88
2022/01/01 10:43:10;;;;;;;;;;;;;;;10.60;100.00;98741.14;1751808;81;22025;-91
2022/01/01 10:45:47;;;;;;;;;;;;;;;10.61;100.00;98743.28;1754155;81;26016;-92
2022/01/01 10:48:21;;;;;;;;;;;;;;;10.62;100.00;98746.28;1752303;81;24451;-91
2022/01/01 10:50:48;;;;;;;;;;;;;;;10.60;100.00;98741.60;1745717;80;20220;-92
2022/01/01 10:53:27;;;;;;;;;;;;;;;10.63;100.00;98729.64;1754725;81;24742;-91
2022/01/01 10:56:07;;;;;;;;;;;;;;;10.66;100.00;98734.20;1754053;81;22245;-91
2022/01/01 10:58:35;;;;;;;;;;;;;;;10.68;100.00;98736.72;1754116;81;26050;-92
2022/01/01 11:01:22;;;;;;;;;;;;;;;10.68;100.00;98735.41;1756048;81;24383;-93
2022/01/01 11:03:48;;;;;;;;;;;;;;;10.68;100.00;98741.49;1758200;81;20242;-93
2022/01/01 11:06:21;;;;;;;;;;;;;;;10.68;100.00;98739.34;1759648;81;24717;-93
2022/01/01 11:08:50;;;;;;;;;;;;;;;10.68;100.00;98734.11;1757897;81;22139;-93
2022/01/01 11:11:31;;;;;;;;;;;;;;;10.71;100.00;98728.66;1756382;81;25989;-92
2022/01/01 11:14:08;;;;;;;;;;;;;;;10.72;100.00;98732.95;1756522;81;24426;-93
2022/01/01 11:16:41;;;;;;;;;;;;;;;10.73;100.00;98732.87;1751735;81;20261;-92
2022/01/01 11:19:13;;;;;;;;;;;;;;;10.73;100.00;98741.19;1753369;81;24755;-93
2022/01/01 11:21:41;;;;;;;;;;;;;;;10.68;100.00;98748.03;1751972;81;21964;-92
2022/01/01 11:24:08;;;;;;;;;;;;;;;10.67;100.00;98744.20;1735481;81;26703;-92
2022/01/01 11:26:34;;;;;;;;;;;;;;;10.65;100.00;98731.20;1751247;81;24577;-93
2022/01/01 11:29:02;;;;;;;;;;;;;;;10.64;100.00;98732.61;1749555;81;20256;-92
2022/01/01 11:31:28;;;;;;;;;;;;;;;10.62;100.00;98726.66;1751371;80;24899;-94
2022/01/01 11:34:01;;;;;;;;;;;;;;;10.59;100.00;98728.14;1749175;81;22233;-90
2022/01/01 11:36:41;;;;;;;;;;;;;;;10.57;100.00;98728.73;1758536;80;26083;-93
2022/01/01 11:39:09;;;;;;;;;;;;;;;10.53;100.00;98731.19;1761702;81;25533;-93
2022/01/01 11:41:41;;;;;;;;;;;;;;;10.51;100.00;98731.74;1755021;81;20245;-92
2022/01/01 11:44:26;;;;;;;;;;;;;;;10.45;100.00;98732.98;1756831;81;24896;-93
2022/01/01 11:47:06;;;;;;;;;;;;;;;10.40;100.00;98732.44;1756710;81;21996;-93
2022/01/01 11:49:40;;;;;;;;;;;;;;;10.37;100.00;98728.22;1755537;81;26653;-92
2022/01/01 11:52:06;;;;;;;;;;;;;;;10.37;100.00;98737.38;1756968;81;24417;-92
2022/01/01 11:54:33;;;;;;;;;;;;;;;10.40;100.00;98734.59;1755489;81;20293;-92
2022/01/01 11:57:08;;;;;;;;;;;;;;;10.41;100.00;98731.04;1755882;81;24805;-93
2022/01/01 11:59:42;;;;;;;;;;;;;;;10.44;100.00;98735.22;1749630;81;22883;-93
2022/01/01 12:02:12;;;;;;;;;;;;;;;10.46;100.00;98737.28;1752537;81;26755;-92
2022/01/01 12:04:45;;;;;;;;;;;;;;;10.45;100.00;98735.13;1757871;81;24490;-92
2022/01/01 12:07:24;;;;;;;;;;;;;;;10.46;100.00;98738.13;1755527;80;20263;-92
2022/01/01 12:10:11;;;;;;;;;;;;;;;10.46;100.00;98739.89;1755685;81;24874;-93
2022/01/01 12:12:58;;;;;;;;;;;;;;;10.46;100.00;98729.43;1756111;81;22223;-92
2022/01/01 12:15:26;;;;;;;;;;;;;;;10.45;100.00;98729.05;1735346;81;26098;-92
2022/01/01 12:18:22;;;;;;;;;;;;;;;10.44;100.00;98726.91;1755888;81;24550;-92
2022/01/01 12:23:37;;;;;;;;;;;;;;;10.43;100.00;98731.76;1755173;81;24740;-92
2022/01/01 12:26:14;;;;;;;;;;;;;;;10.43;100.00;98738.77;1759257;81;22719;-94
2022/01/01 12:28:52;;;;;;;;;;;;;;;10.44;100.00;98733.45;1753283;81;25951;-93
2022/01/01 12:31:37;;;;;;;;;;;;;;;10.44;100.00;98732.13;1757574;81;24400;-92
2022/01/01 12:34:19;;;;;;;;;;;;;;;10.46;100.00;98734.66;1748962;81;20412;-93
2022/01/01 12:37:07;;;;;;;;;;;;;;;10.47;100.00;98741.58;1757685;81;24856;-93
2022/01/01 12:43:03;;;;;;;;;;;;;;;10.45;100.00;98734.28;1755446;81;25978;-94
2022/01/01 12:45:31;;;;;;;;;;;;;;;10.45;100.00;98734.28;1762243;81;24438;-92
2022/01/01 12:48:05;;;;;;;;;;;;;;;10.43;100.00;98739.61;1762501;80;20267;-93
2022/01/01 12:50:41;;;;;;;;;;;;;;;10.44;100.00;98737.84;1750777;81;24813;-92
2022/01/01 12:53:12;;;;;;;;;;;;;;;10.45;100.00;98744.75;1757713;80;22631;-92
2022/01/01 12:55:38;;;;;;;;;;;;;;;10.47;100.00;98752.86;1750175;80;26091;-92
2022/01/01 12:58:12;;;;;;;;;;;;;;;10.46;100.00;98755.12;1756219;80;24523;-92
2022/01/01 13:00:40;;;;;;;;;;;;;;;10.47;100.00;98751.55;1720571;81;20222;-92
2022/01/01 13:03:07;;;;;;;;;;;;;;;10.50;100.00;98760.99;1759035;80;24898;-92
2022/01/01 13:05:42;;;;;;;;;;;;;;;10.53;100.00;98763.40;1757271;80;22490;-92
2022/01/01 13:08:19;;;;;;;;;;;;;;;10.53;100.00;98767.82;1756595;80;26064;-91
2022/01/01 13:10:50;;;;;;;;;;;;;;;10.54;100.00;98767.70;1757802;81;24688;-92
2022/01/01 13:13:19;;;;;;;;;;;;;;;10.57;100.00;98770.14;1752426;80;20265;-91
2022/01/01 13:15:45;;;;;;;;;;;;;;;10.59;100.00;98779.17;1753399;80;24860;-91
2022/01/01 13:18:20;;;;;;;;;;;;;;;10.61;100.00;98779.93;1763186;80;21807;-91
2022/01/01 13:20:53;;;;;;;;;;;;;;;10.62;100.00;98779.84;1757808;80;26018;-92
2022/01/01 13:23:19;;;;;;;;;;;;;;;10.62;100.00;98794.70;1754703;80;24644;-92
2022/01/01 13:25:48;;;;;;;;;;;;;;;10.62;100.00;98788.16;1760681;80;20678;-91
2022/01/01 13:28:14;;;;;;;;;;;;;;;10.60;100.00;98796.09;1763260;80;24829;-91
2022/01/01 13:30:41;;;;;;;;;;;;;;;10.60;100.00;98801.33;1752942;80;21964;-92
2022/01/01 13:33:07;;;;;;;;;;;;;;;10.61;100.00;98806.94;1752065;80;26141;-91
2022/01/01 13:35:33;;;;;;;;;;;;;;;10.60;100.00;98799.18;1750915;81;24612;-92
2022/01/01 13:38:02;;;;;;;;;;;;;;;10.60;100.00;98807.88;1756114;81;20218;-92
2022/01/01 13:40:29;;;;;;;;;;;;;;;10.60;100.00;98824.05;1756149;81;25468;-92
2022/01/01 13:43:10;;;;;;;;;;;;;;;10.59;100.00;98818.43;1755244;81;22109;-91
2022/01/01 13:45:50;;;;;;;;;;;;;;;10.56;100.00;98812.09;1755279;81;25958;-92
2022/01/01 13:48:22;;;;;;;;;;;;;;;10.53;100.00;98820.97;1751747;81;24494;-92
2022/01/01 13:50:49;;;;;;;;;;;;;;;10.53;100.00;98825.39;1749603;81;20501;-91
2022/01/01 13:53:23;;;;;;;;;;;;;;;10.55;100.00;98828.73;1755657;81;24817;-92
2022/01/01 13:55:53;;;;;;;;;;;;;;;10.56;100.00;98829.95;1757225;80;23653;-91
2022/01/01 14:01:34;;;;;;;;;;;;;;;10.53;100.00;98833.24;1757178;81;24426;-92
2022/01/01 14:04:02;;;;;;;;;;;;;;;10.58;100.00;98836.41;1752298;81;20178;-91
2022/01/01 14:06:28;;;;;;;;;;;;;;;10.58;100.00;98839.87;1752932;81;24679;-93
2022/01/01 14:09:09;;;;;;;;;;;;;;;10.60;100.00;98846.29;1748613;81;22049;-92
2022/01/01 14:11:38;;;;;;;;;;;;;;;10.59;100.00;98844.60;1750276;81;26788;-93
2022/01/01 14:14:08;;;;;;;;;;;;;;;10.59;100.00;98848.53;1750700;81;24391;-92
2022/01/01 14:16:44;;;;;;;;;;;;;;;10.57;100.00;98854.34;1753680;81;20277;-93
2022/01/01 14:19:12;;;;;;;;;;;;;;;10.57;100.00;98853.88;1749475;81;24761;-91